Time;durP1;ratioP1;P1;durP2;ratioP2;P2;SDS_P1;SDS_P2;PMS_P1;PMS_P2;Temp;Humidity;BMP_temperature;BMP_pressure;BME280_temperature;BME280_humidity;BME280_pressure;Samples;Min_cycle;Max_cycle;Signal;HPM_P1;HPM_P2
2022/06/09 00:01:21;;;;;;;11.90;10.00;;;;;;;-128.00;-1.00;-1.00;100136;1299;1003254;-28
2022/06/09 00:03:56;;;;;;;12.30;10.10;;;;;;;-128.00;-1.00;-1.00;100197;1299;1003814;-24
2022/06/09 00:06:31;;;;;;;15.40;10.40;;;;;;;-128.00;-1.00;-1.00;100093;1299;1004316;-28
2022/06/09 00:09:01;;;;;;;18.30;10.60;;;;;;;-128.00;-1.00;-1.00;100124;1299;1003693;-30
2022/06/09 00:11:32;;;;;;;12.80;9.50;;;;;;;-128.00;-1.00;-1.00;100211;1299;1004837;-27
2022/06/09 00:14:01;;;;;;;11.70;9.50;;;;;;;-128.00;-1.00;-1.00;100169;1299;1003212;-30
2022/06/09 00:16:30;;;;;;;11.80;10.70;;;;;;;-128.00;-1.00;-1.00;100196;1299;1003818;-30
2022/06/09 00:19:00;;;;;;;11.20;8.60;;;;;;;-128.00;-1.00;-1.00;100154;1299;1003178;-30
2022/06/09 00:21:29;;;;;;;23.00;9.60;;;;;;;-128.00;-1.00;-1.00;100121;1299;1003445;-27
2022/06/09 00:23:58;;;;;;;20.00;9.30;;;;;;;-128.00;-1.00;-1.00;100131;1299;1003330;-28
2022/06/09 00:26:28;;;;;;;11.50;9.70;;;;;;;-128.00;-1.00;-1.00;100101;1299;1003715;-28
2022/06/09 00:28:57;;;;;;;6.60;6.00;;;;;;;-128.00;-1.00;-1.00;100099;1299;1003725;-27
2022/06/09 00:31:27;;;;;;;12.80;10.20;;;;;;;-128.00;-1.00;-1.00;100222;1298;1004160;-25
2022/06/09 00:33:56;;;;;;;10.20;6.60;;;;;;;-128.00;-1.00;-1.00;100140;1299;1003939;-25
2022/06/09 00:36:25;;;;;;;10.20;9.20;;;;;;;-128.00;-1.00;-1.00;100221;1299;1003503;-25
2022/06/09 00:38:55;;;;;;;16.00;10.40;;;;;;;-128.00;-1.00;-1.00;100164;1299;1004080;-25
2022/06/09 00:41:25;;;;;;;15.10;8.70;;;;;;;-128.00;-1.00;-1.00;100138;1299;1003622;-28
2022/06/09 00:44:13;;;;;;;9.20;7.60;;;;;;;-128.00;-1.00;-1.00;100118;1299;1002619;-28
2022/06/09 00:46:43;;;;;;;19.00;10.80;;;;;;;-128.00;-1.00;-1.00;100141;1299;1003381;-28
2022/06/09 00:49:17;;;;;;;19.80;13.90;;;;;;;-128.00;-1.00;-1.00;100094;1299;1004270;-28
2022/06/09 00:51:47;;;;;;;13.10;11.00;;;;;;;-128.00;-1.00;-1.00;100172;1299;1003456;-27
2022/06/09 00:54:19;;;;;;;16.50;10.70;;;;;;;-128.00;-1.00;-1.00;100139;1299;1003070;-28
2022/06/09 00:56:51;;;;;;;12.40;9.90;;;;;;;-128.00;-1.00;-1.00;100161;1299;1003711;-28
2022/06/09 00:59:22;;;;;;;11.40;8.90;;;;;;;-128.00;-1.00;-1.00;100197;1299;1003452;-25
2022/06/09 01:01:51;;;;;;;15.60;10.20;;;;;;;-128.00;-1.00;-1.00;100143;1299;1003727;-24
2022/06/09 01:04:20;;;;;;;18.40;13.10;;;;;;;-128.00;-1.00;-1.00;100202;1299;1004097;-25
2022/06/09 01:06:52;;;;;;;30.50;15.80;;;;;;;-128.00;-1.00;-1.00;100192;1299;1003801;-26
2022/06/09 01:09:23;;;;;;;13.30;11.90;;;;;;;-128.00;-1.00;-1.00;100150;1299;1004144;-28
2022/06/09 01:11:54;;;;;;;16.00;12.00;;;;;;;-128.00;-1.00;-1.00;100129;1299;1003634;-28
2022/06/09 01:14:26;;;;;;;27.60;21.00;;;;;;;-128.00;-1.00;-1.00;100102;1299;1003151;-24
2022/06/09 01:17:03;;;;;;;27.50;22.30;;;;;;;-128.00;-1.00;-1.00;100182;1299;1003044;-24
2022/06/09 01:19:39;;;;;;;24.70;14.80;;;;;;;-128.00;-1.00;-1.00;100131;1299;1004053;-25
2022/06/09 01:22:11;;;;;;;23.50;15.40;;;;;;;-128.00;-1.00;-1.00;100113;1299;1004727;-25
2022/06/09 01:24:44;;;;;;;;;;;;;;;-128.00;-1.00;-1.00;100161;1299;1003026;-24
2022/06/09 01:27:23;;;;;;;45.90;37.20;;;;;;;-128.00;-1.00;-1.00;100187;1298;1004192;-28
2022/06/09 01:30:03;;;;;;;30.10;18.10;;;;;;;-128.00;-1.00;-1.00;100109;1299;1003397;-24
2022/06/09 01:32:35;;;;;;;39.30;35.00;;;;;;;-128.00;-1.00;-1.00;100150;1299;1004120;-28
2022/06/09 01:35:08;;;;;;;37.90;31.80;;;;;;;-128.00;-1.00;-1.00;100062;1299;1003571;-28
2022/06/09 01:37:39;;;;;;;24.20;16.60;;;;;;;-128.00;-1.00;-1.00;100234;1299;1003028;-24
2022/06/09 01:40:10;;;;;;;34.80;31.50;;;;;;;-128.00;-1.00;-1.00;100148;1299;1003594;-28
2022/06/09 01:42:42;;;;;;;16.30;14.40;;;;;;;-128.00;-1.00;-1.00;100158;1299;1003181;-24
2022/06/09 01:45:15;;;;;;;16.10;9.10;;;;;;;-128.00;-1.00;-1.00;100156;1298;1003268;-28
2022/06/09 01:47:49;;;;;;;12.40;10.30;;;;;;;-128.00;-1.00;-1.00;100148;1299;1003974;-24
2022/06/09 01:50:23;;;;;;;14.70;9.30;;;;;;;-128.00;-1.00;-1.00;100179;1298;1003712;-23
2022/06/09 01:52:53;;;;;;;9.20;8.20;;;;;;;-128.00;-1.00;-1.00;100151;1299;1003280;-28
2022/06/09 01:55:22;;;;;;;11.50;8.50;;;;;;;-128.00;-1.00;-1.00;100153;1299;1004090;-24
2022/06/09 01:57:54;;;;;;;7.80;7.00;;;;;;;-128.00;-1.00;-1.00;100219;1299;1002909;-28
2022/06/09 02:00:23;;;;;;;7.10;6.00;;;;;;;-128.00;-1.00;-1.00;100138;1298;1003098;-28
2022/06/09 02:02:59;;;;;;;10.70;8.40;;;;;;;-128.00;-1.00;-1.00;99961;1299;1004519;-30
2022/06/09 02:05:30;;;;;;;11.60;8.40;;;;;;;-128.00;-1.00;-1.00;100163;1299;1003663;-26
2022/06/09 02:08:00;;;;;;;11.70;9.10;;;;;;;-128.00;-1.00;-1.00;100117;1299;1002902;-27
2022/06/09 02:10:32;;;;;;;9.90;9.00;;;;;;;-128.00;-1.00;-1.00;100190;1298;1003531;-26
2022/06/09 02:13:07;;;;;;;11.90;7.70;;;;;;;-128.00;-1.00;-1.00;100138;1298;1002978;-25
2022/06/09 02:15:41;;;;;;;9.30;7.60;;;;;;;-128.00;-1.00;-1.00;99924;1299;1003722;-28
2022/06/09 02:18:14;;;;;;;9.90;7.50;;;;;;;-128.00;-1.00;-1.00;100095;1298;1004052;-24
2022/06/09 02:20:50;;;;;;;8.90;7.40;;;;;;;-128.00;-1.00;-1.00;100155;1298;1003819;-24
2022/06/09 02:23:19;;;;;;;12.40;7.80;;;;;;;-128.00;-1.00;-1.00;100163;1299;1003527;-24
2022/06/09 02:25:48;;;;;;;10.40;8.10;;;;;;;-128.00;-1.00;-1.00;100206;1299;1003678;-28
2022/06/09 02:28:17;;;;;;;9.90;8.40;;;;;;;-128.00;-1.00;-1.00;100212;1299;1004248;-26
2022/06/09 02:30:47;;;;;;;10.50;8.30;;;;;;;-128.00;-1.00;-1.00;100168;1299;1003435;-28
2022/06/09 02:33:17;;;;;;;10.60;6.80;;;;;;;-128.00;-1.00;-1.00;100138;1298;1003969;-24
2022/06/09 02:35:47;;;;;;;9.60;8.80;;;;;;;-128.00;-1.00;-1.00;100134;1298;1004117;-28
2022/06/09 02:38:17;;;;;;;8.10;7.20;;;;;;;-128.00;-1.00;-1.00;100175;1299;1005484;-24
2022/06/09 02:40:47;;;;;;;8.30;7.50;;;;;;;-128.00;-1.00;-1.00;100110;1299;1003538;-25
2022/06/09 02:43:16;;;;;;;10.20;7.90;;;;;;;-128.00;-1.00;-1.00;99988;1299;1003849;-24
2022/06/09 02:45:45;;;;;;;11.40;8.90;;;;;;;-128.00;-1.00;-1.00;100177;1299;1003357;-24
2022/06/09 02:48:16;;;;;;;7.70;7.00;;;;;;;-128.00;-1.00;-1.00;100001;1299;1004723;-23
2022/06/09 02:50:46;;;;;;;9.60;8.40;;;;;;;-128.00;-1.00;-1.00;100173;1299;1004876;-24
2022/06/09 02:53:15;;;;;;;9.00;6.80;;;;;;;-128.00;-1.00;-1.00;100162;1299;1003178;-24
2022/06/09 02:55:45;;;;;;;10.70;7.10;;;;;;;-128.00;-1.00;-1.00;100276;1298;1004222;-24
2022/06/09 02:58:14;;;;;;;11.50;8.60;;;;;;;-128.00;-1.00;-1.00;100192;1299;1002963;-28
2022/06/09 03:00:43;;;;;;;9.00;7.90;;;;;;;-128.00;-1.00;-1.00;100152;1298;1004143;-24
2022/06/09 03:03:14;;;;;;;10.90;8.40;;;;;;;-128.00;-1.00;-1.00;100195;1299;1003172;-28
2022/06/09 03:05:43;;;;;;;9.20;8.30;;;;;;;-128.00;-1.00;-1.00;100128;1299;1003157;-28
2022/06/09 03:08:12;;;;;;;8.40;6.30;;;;;;;-128.00;-1.00;-1.00;100139;1299;1004316;-28
2022/06/09 03:10:41;;;;;;;9.40;8.10;;;;;;;-128.00;-1.00;-1.00;100156;1299;1004030;-25
2022/06/09 03:13:11;;;;;;;27.10;11.90;;;;;;;-128.00;-1.00;-1.00;100157;1299;1005301;-28
2022/06/09 03:15:40;;;;;;;15.80;7.60;;;;;;;-128.00;-1.00;-1.00;100161;1299;1003123;-27
2022/06/09 03:18:09;;;;;;;10.20;6.00;;;;;;;-128.00;-1.00;-1.00;100179;1299;1004311;-25
2022/06/09 03:20:39;;;;;;;6.00;5.50;;;;;;;-128.00;-1.00;-1.00;100170;1299;1003181;-25
2022/06/09 03:23:08;;;;;;;8.90;7.90;;;;;;;-128.00;-1.00;-1.00;100202;1298;1003595;-24
2022/06/09 03:25:37;;;;;;;14.30;7.30;;;;;;;-128.00;-1.00;-1.00;100145;1299;1003014;-25
2022/06/09 03:28:07;;;;;;;11.10;7.80;;;;;;;-128.00;-1.00;-1.00;100199;1299;1003116;-28
2022/06/09 03:30:36;;;;;;;23.80;8.30;;;;;;;-128.00;-1.00;-1.00;100239;1299;1003597;-28
2022/06/09 03:33:05;;;;;;;12.90;10.30;;;;;;;-128.00;-1.00;-1.00;100157;1299;1004006;-25
2022/06/09 03:35:34;;;;;;;10.40;9.00;;;;;;;-128.00;-1.00;-1.00;100196;1299;1004293;-25
2022/06/09 03:38:04;;;;;;;21.80;14.80;;;;;;;-128.00;-1.00;-1.00;100201;1299;1003295;-25
2022/06/09 03:40:33;;;;;;;9.20;8.40;;;;;;;-128.00;-1.00;-1.00;100189;1299;1004340;-29
2022/06/09 03:43:02;;;;;;;11.10;9.30;;;;;;;-128.00;-1.00;-1.00;100185;1299;1003062;-29
2022/06/09 03:45:32;;;;;;;10.00;8.60;;;;;;;-128.00;-1.00;-1.00;100106;1299;1003953;-23
2022/06/09 03:48:01;;;;;;;8.40;7.70;;;;;;;-128.00;-1.00;-1.00;100160;1299;1004637;-24
2022/06/09 03:50:31;;;;;;;14.10;8.80;;;;;;;-128.00;-1.00;-1.00;100199;1299;1003412;-24
2022/06/09 03:53:00;;;;;;;10.70;9.30;;;;;;;-128.00;-1.00;-1.00;100186;1299;1004043;-27
2022/06/09 03:55:29;;;;;;;14.80;8.90;;;;;;;-128.00;-1.00;-1.00;100237;1299;1005181;-25
2022/06/09 03:57:58;;;;;;;12.80;9.20;;;;;;;-128.00;-1.00;-1.00;100184;1299;1003902;-23
2022/06/09 04:00:29;;;;;;;12.40;9.40;;;;;;;-128.00;-1.00;-1.00;100133;1299;1003139;-28
2022/06/09 04:02:58;;;;;;;9.20;8.10;;;;;;;-128.00;-1.00;-1.00;100162;1299;1003645;-25
2022/06/09 04:05:27;;;;;;;6.10;5.40;;;;;;;-128.00;-1.00;-1.00;100188;1299;1003007;-26
2022/06/09 04:07:59;;;;;;;8.70;7.50;;;;;;;-128.00;-1.00;-1.00;100146;1299;1004695;-29
2022/06/09 04:10:30;;;;;;;10.20;8.30;;;;;;;-128.00;-1.00;-1.00;100173;1299;1004683;-29
2022/06/09 04:12:59;;;;;;;9.80;8.90;;;;;;;-128.00;-1.00;-1.00;100165;1299;1003152;-29
2022/06/09 04:15:28;;;;;;;11.40;9.50;;;;;;;-128.00;-1.00;-1.00;99974;1298;1004088;-25
2022/06/09 04:17:58;;;;;;;12.80;9.30;;;;;;;-128.00;-1.00;-1.00;100180;1299;1003762;-26
2022/06/09 04:20:27;;;;;;;6.70;5.60;;;;;;;-128.00;-1.00;-1.00;100141;1299;1003991;-30
2022/06/09 04:22:56;;;;;;;9.20;8.10;;;;;;;-128.00;-1.00;-1.00;100231;1299;1002878;-29
2022/06/09 04:25:25;;;;;;;15.80;6.90;;;;;;;-128.00;-1.00;-1.00;100208;1299;1004473;-29
2022/06/09 04:27:54;;;;;;;8.70;7.20;;;;;;;-128.00;-1.00;-1.00;100158;1299;1004320;-27
2022/06/09 04:30:23;;;;;;;9.20;8.10;;;;;;;-128.00;-1.00;-1.00;100170;1299;1003953;-29
2022/06/09 04:32:53;;;;;;;8.40;7.60;;;;;;;-128.00;-1.00;-1.00;100165;1298;1004767;-30
2022/06/09 04:35:23;;;;;;;10.10;7.80;;;;;;;-128.00;-1.00;-1.00;100198;1299;1003102;-29
2022/06/09 04:40:27;;;;;;;8.50;6.40;;;;;;;-128.00;-1.00;-1.00;100287;1299;1004211;-26
2022/06/09 04:42:56;;;;;;;10.40;7.30;;;;;;;-128.00;-1.00;-1.00;100139;1299;1004232;-29
2022/06/09 04:45:25;;;;;;;14.20;8.50;;;;;;;-128.00;-1.00;-1.00;100169;1299;1003323;-25
2022/06/09 04:47:54;;;;;;;11.00;9.60;;;;;;;-128.00;-1.00;-1.00;100155;1299;1003814;-29
2022/06/09 04:50:24;;;;;;;10.40;8.60;;;;;;;-128.00;-1.00;-1.00;100170;1299;1003508;-24
2022/06/09 04:52:53;;;;;;;14.80;9.70;;;;;;;-128.00;-1.00;-1.00;100185;1298;1004767;-28
2022/06/09 04:55:25;;;;;;;9.50;8.50;;;;;;;-128.00;-1.00;-1.00;100137;1299;1002928;-23
2022/06/09 04:57:55;;;;;;;9.60;8.40;;;;;;;-128.00;-1.00;-1.00;100121;1299;1004242;-27
2022/06/09 05:00:26;;;;;;;9.70;7.30;;;;;;;-128.00;-1.00;-1.00;100154;1299;1003218;-26
2022/06/09 05:02:56;;;;;;;9.80;9.00;;;;;;;-128.00;-1.00;-1.00;100153;1299;1003189;-30
2022/06/09 05:05:27;;;;;;;12.10;10.50;;;;;;;-128.00;-1.00;-1.00;100261;1299;1003672;-24
2022/06/09 05:07:57;;;;;;;10.10;8.80;;;;;;;-128.00;-1.00;-1.00;100174;1299;1002956;-28
2022/06/09 05:10:27;;;;;;;11.40;9.80;;;;;;;-128.00;-1.00;-1.00;100054;1300;1004148;-28
2022/06/09 05:12:56;;;;;;;12.60;10.90;;;;;;;-128.00;-1.00;-1.00;100071;1299;1003010;-28
2022/06/09 05:15:26;;;;;;;11.40;8.80;;;;;;;-128.00;-1.00;-1.00;100202;1298;1003805;-29
2022/06/09 05:17:57;;;;;;;15.40;8.50;;;;;;;-128.00;-1.00;-1.00;100244;1299;1003224;-25
2022/06/09 05:20:27;;;;;;;11.90;10.80;;;;;;;-128.00;-1.00;-1.00;100189;1299;1002916;-28
2022/06/09 05:22:56;;;;;;;9.50;8.60;;;;;;;-128.00;-1.00;-1.00;100151;1298;1003874;-25
2022/06/09 05:25:26;;;;;;;18.80;10.00;;;;;;;-128.00;-1.00;-1.00;100172;1299;1003731;-31
2022/06/09 05:27:55;;;;;;;10.70;9.70;;;;;;;-128.00;-1.00;-1.00;100170;1299;1003742;-28
2022/06/09 05:30:24;;;;;;;9.40;8.40;;;;;;;-128.00;-1.00;-1.00;100180;1299;1003850;-26
2022/06/09 05:32:53;;;;;;;12.20;8.90;;;;;;;-128.00;-1.00;-1.00;100270;1299;1003108;-28
2022/06/09 05:35:23;;;;;;;7.70;7.00;;;;;;;-128.00;-1.00;-1.00;100236;1299;1003800;-34
2022/06/09 05:45:30;;;;;;;8.20;6.00;;;;;;;-128.00;-1.00;-1.00;100151;1299;1003187;-27
2022/06/09 05:47:59;;;;;;;9.70;6.90;;;;;;;-128.00;-1.00;-1.00;99987;1299;1003861;-25
2022/06/09 05:50:28;;;;;;;6.80;5.20;;;;;;;-128.00;-1.00;-1.00;100165;1299;1003278;-29
2022/06/09 05:52:57;;;;;;;6.20;4.40;;;;;;;-128.00;-1.00;-1.00;100236;1299;1003908;-24
2022/06/09 05:55:29;;;;;;;8.70;4.90;;;;;;;-128.00;-1.00;-1.00;100249;1299;1003486;-28
2022/06/09 05:57:58;;;;;;;6.30;5.30;;;;;;;-128.00;-1.00;-1.00;100275;1299;1003131;-24
2022/06/09 06:00:27;;;;;;;7.50;5.00;;;;;;;-128.00;-1.00;-1.00;100102;1299;1004182;-25
2022/06/09 06:02:57;;;;;;;5.70;5.30;;;;;;;-128.00;-1.00;-1.00;100186;1299;1003317;-29
2022/06/09 06:07:59;;;;;;;9.60;4.30;;;;;;;-128.00;-1.00;-1.00;100188;1299;1003227;-24
2022/06/09 06:10:28;;;;;;;9.10;5.20;;;;;;;-128.00;-1.00;-1.00;100173;1299;1004590;-25
2022/06/09 06:12:57;;;;;;;6.40;5.40;;;;;;;-128.00;-1.00;-1.00;100137;1299;1004388;-28
2022/06/09 06:15:27;;;;;;;6.20;4.40;;;;;;;-128.00;-1.00;-1.00;100229;1299;1004393;-28
2022/06/09 06:17:56;;;;;;;7.20;5.60;;;;;;;-128.00;-1.00;-1.00;100163;1298;1004245;-25
2022/06/09 06:20:26;;;;;;;34.00;5.80;;;;;;;-128.00;-1.00;-1.00;100109;1299;1004389;-29
2022/06/09 06:22:55;;;;;;;8.60;4.40;;;;;;;-128.00;-1.00;-1.00;100164;1299;1004033;-25
2022/06/09 06:25:25;;;;;;;12.10;5.60;;;;;;;-128.00;-1.00;-1.00;100192;1299;1002948;-29
2022/06/09 06:27:54;;;;;;;6.30;5.40;;;;;;;-128.00;-1.00;-1.00;100172;1299;1003468;-29
2022/06/09 06:30:23;;;;;;;7.20;4.50;;;;;;;-128.00;-1.00;-1.00;100162;1299;1003982;-29
2022/06/09 06:32:52;;;;;;;5.10;4.70;;;;;;;-128.00;-1.00;-1.00;100146;1299;1003112;-25
2022/06/09 06:35:21;;;;;;;5.60;4.70;;;;;;;-128.00;-1.00;-1.00;100207;1299;1003696;-25
2022/06/09 06:37:51;;;;;;;6.70;5.90;;;;;;;-128.00;-1.00;-1.00;100192;1298;1004049;-29
2022/06/09 06:40:20;;;;;;;4.90;4.30;;;;;;;-128.00;-1.00;-1.00;100106;1299;1004050;-29
2022/06/09 06:42:49;;;;;;;5.40;4.80;;;;;;;-128.00;-1.00;-1.00;100143;1299;1003959;-28
2022/06/09 06:45:18;;;;;;;7.00;5.90;;;;;;;-128.00;-1.00;-1.00;100177;1299;1003172;-24
2022/06/09 06:47:48;;;;;;;6.10;5.60;;;;;;;-128.00;-1.00;-1.00;100193;1299;1003753;-24
2022/06/09 06:50:17;;;;;;;4.80;4.30;;;;;;;-128.00;-1.00;-1.00;100065;1299;1003807;-28
2022/06/09 06:52:46;;;;;;;5.00;4.20;;;;;;;-128.00;-1.00;-1.00;100172;1299;1003793;-28
2022/06/09 06:55:16;;;;;;;4.20;3.50;;;;;;;-128.00;-1.00;-1.00;100213;1299;1003951;-28
2022/06/09 06:57:46;;;;;;;6.40;3.70;;;;;;;-128.00;-1.00;-1.00;100224;1299;1003564;-24
2022/06/09 07:00:18;;;;;;;4.40;4.00;;;;;;;-128.00;-1.00;-1.00;100201;1298;1003488;-25
2022/06/09 07:02:48;;;;;;;3.50;3.20;;;;;;;-128.00;-1.00;-1.00;99996;1299;1003451;-28
2022/06/09 07:05:18;;;;;;;2.80;2.60;;;;;;;-128.00;-1.00;-1.00;100197;1299;1003802;-24
2022/06/09 07:07:47;;;;;;;5.30;4.30;;;;;;;-128.00;-1.00;-1.00;100113;1298;1003536;-24
2022/06/09 07:10:18;;;;;;;3.80;3.50;;;;;;;-128.00;-1.00;-1.00;100177;1299;1003389;-24
2022/06/09 07:12:47;;;;;;;2.50;2.40;;;;;;;-128.00;-1.00;-1.00;100178;1298;1003399;-28
2022/06/09 07:15:16;;;;;;;5.20;4.00;;;;;;;-128.00;-1.00;-1.00;100221;1299;1003324;-24
2022/06/09 07:17:46;;;;;;;4.70;3.30;;;;;;;-128.00;-1.00;-1.00;100212;1299;1004705;-24
2022/06/09 07:20:16;;;;;;;4.50;3.50;;;;;;;-128.00;-1.00;-1.00;100269;1299;1003731;-24
2022/06/09 07:22:45;;;;;;;3.20;2.90;;;;;;;-128.00;-1.00;-1.00;100173;1299;1003726;-25
2022/06/09 07:25:15;;;;;;;3.40;2.70;;;;;;;-128.00;-1.00;-1.00;100160;1299;1003897;-25
2022/06/09 07:27:45;;;;;;;2.80;2.60;;;;;;;-128.00;-1.00;-1.00;100079;1299;1003782;-29
2022/06/09 07:30:14;;;;;;;3.20;2.90;;;;;;;-128.00;-1.00;-1.00;100145;1299;1003710;-25
2022/06/09 07:32:44;;;;;;;3.50;3.20;;;;;;;-128.00;-1.00;-1.00;100182;1299;1002888;-23
2022/06/09 07:35:15;;;;;;;2.70;2.40;;;;;;;-128.00;-1.00;-1.00;100195;1299;1003338;-28
2022/06/09 07:37:45;;;;;;;3.10;2.80;;;;;;;-128.00;-1.00;-1.00;100142;1299;1002802;-24
2022/06/09 07:40:14;;;;;;;3.90;3.50;;;;;;;-128.00;-1.00;-1.00;100206;1299;1003845;-24
2022/06/09 07:42:43;;;;;;;5.70;3.50;;;;;;;-128.00;-1.00;-1.00;100198;1299;1003778;-28
2022/06/09 07:45:13;;;;;;;4.40;3.90;;;;;;;-128.00;-1.00;-1.00;100112;1300;1003183;-28
2022/06/09 07:47:42;;;;;;;4.40;3.80;;;;;;;-128.00;-1.00;-1.00;100177;1299;1004255;-28
2022/06/09 07:50:12;;;;;;;4.50;3.60;;;;;;;-128.00;-1.00;-1.00;100133;1299;1003662;-27
2022/06/09 07:52:41;;;;;;;4.50;3.70;;;;;;;-128.00;-1.00;-1.00;100180;1299;1002922;-24
2022/06/09 07:55:10;;;;;;;3.50;3.20;;;;;;;-128.00;-1.00;-1.00;100232;1299;1003821;-28
2022/06/09 07:57:39;;;;;;;3.30;3.00;;;;;;;-128.00;-1.00;-1.00;100216;1299;1004285;-28
2022/06/09 08:00:10;;;;;;;6.70;2.70;;;;;;;-128.00;-1.00;-1.00;100173;1299;1004212;-25
2022/06/09 08:02:39;;;;;;;4.90;4.10;;;;;;;-128.00;-1.00;-1.00;100116;1299;1002547;-29
2022/06/09 08:05:09;;;;;;;3.80;2.90;;;;;;;-128.00;-1.00;-1.00;100133;1299;1003642;-28
2022/06/09 08:07:38;;;;;;;3.20;2.70;;;;;;;-128.00;-1.00;-1.00;100214;1299;1003609;-30
2022/06/09 08:10:08;;;;;;;3.60;2.60;;;;;;;-128.00;-1.00;-1.00;100164;1299;1003429;-29
2022/06/09 08:12:37;;;;;;;4.10;3.60;;;;;;;-128.00;-1.00;-1.00;100148;1299;1003354;-25
2022/06/09 08:15:07;;;;;;;7.10;3.50;;;;;;;-128.00;-1.00;-1.00;100186;1298;1004185;-29
2022/06/09 08:17:38;;;;;;;3.00;2.80;;;;;;;-128.00;-1.00;-1.00;100165;1299;1004133;-29
2022/06/09 08:20:08;;;;;;;5.20;4.20;;;;;;;-128.00;-1.00;-1.00;100240;1299;1003190;-26
2022/06/09 08:22:43;;;;;;;3.60;3.20;;;;;;;-128.00;-1.00;-1.00;100155;1299;1004473;-28
2022/06/09 08:25:14;;;;;;;3.60;2.90;;;;;;;-128.00;-1.00;-1.00;100174;1299;1003766;-28
2022/06/09 08:27:43;;;;;;;2.10;1.90;;;;;;;-128.00;-1.00;-1.00;100105;1299;1004631;-28
2022/06/09 08:30:13;;;;;;;3.60;3.20;;;;;;;-128.00;-1.00;-1.00;100192;1299;1003717;-28
2022/06/09 08:32:42;;;;;;;4.30;2.70;;;;;;;-128.00;-1.00;-1.00;100143;1299;1004041;-28
2022/06/09 08:35:14;;;;;;;3.00;2.80;;;;;;;-128.00;-1.00;-1.00;100090;1299;1003569;-25
2022/06/09 08:37:45;;;;;;;4.50;3.00;;;;;;;-128.00;-1.00;-1.00;100141;1299;1003715;-28
2022/06/09 08:40:16;;;;;;;6.10;3.30;;;;;;;-128.00;-1.00;-1.00;100153;1299;1004820;-24
2022/06/09 08:42:52;;;;;;;4.20;3.40;;;;;;;-128.00;-1.00;-1.00;100266;1299;1003291;-28
2022/06/09 08:45:27;;;;;;;2.90;2.60;;;;;;;-128.00;-1.00;-1.00;100223;1299;1004070;-24
2022/06/09 08:47:56;;;;;;;3.40;3.10;;;;;;;-128.00;-1.00;-1.00;100194;1299;1003568;-24
2022/06/09 08:50:31;;;;;;;3.80;3.40;;;;;;;-128.00;-1.00;-1.00;100201;1299;1003170;-28
2022/06/09 08:53:01;;;;;;;4.10;2.80;;;;;;;-128.00;-1.00;-1.00;100140;1299;1003913;-24
2022/06/09 08:55:34;;;;;;;3.10;2.50;;;;;;;-128.00;-1.00;-1.00;100187;1299;1003203;-28
2022/06/09 08:58:11;;;;;;;4.10;3.70;;;;;;;-128.00;-1.00;-1.00;100174;1299;1003547;-28
2022/06/09 09:00:43;;;;;;;3.00;2.60;;;;;;;-128.00;-1.00;-1.00;100185;1299;1004166;-24
2022/06/09 09:03:18;;;;;;;4.40;3.90;;;;;;;-128.00;-1.00;-1.00;100136;1299;1004109;-24
2022/06/09 09:05:54;;;;;;;2.80;2.60;;;;;;;-128.00;-1.00;-1.00;100151;1299;1002849;-26
2022/06/09 09:08:23;;;;;;;4.10;2.90;;;;;;;-128.00;-1.00;-1.00;100271;1299;1003649;-27
2022/06/09 09:11:00;;;;;;;3.50;2.30;;;;;;;-128.00;-1.00;-1.00;100215;1299;1003231;-24
2022/06/09 09:13:33;;;;;;;4.30;2.90;;;;;;;-128.00;-1.00;-1.00;100215;1299;1004003;-28
2022/06/09 09:16:08;;;;;;;2.40;2.20;;;;;;;-128.00;-1.00;-1.00;100172;1299;1003074;-28
2022/06/09 09:18:53;;;;;;;2.90;2.30;;;;;;;-128.00;-1.00;-1.00;100151;1299;1004107;-28
2022/06/09 09:21:27;;;;;;;2.00;1.80;;;;;;;-128.00;-1.00;-1.00;100129;1299;1003297;-28
2022/06/09 09:24:06;;;;;;;2.50;2.30;;;;;;;-128.00;-1.00;-1.00;100148;1299;1003081;-24
2022/06/09 09:26:42;;;;;;;2.30;2.10;;;;;;;-128.00;-1.00;-1.00;100234;1299;1003845;-28
2022/06/09 09:29:16;;;;;;;5.10;2.80;;;;;;;-128.00;-1.00;-1.00;100215;1299;1004765;-24
2022/06/09 09:31:51;;;;;;;2.90;2.50;;;;;;;-128.00;-1.00;-1.00;100222;1302;1002709;-25
2022/06/09 09:34:25;;;;;;;2.50;2.30;;;;;;;-128.00;-1.00;-1.00;100196;1299;1002719;-30
2022/06/09 09:36:57;;;;;;;2.50;2.30;;;;;;;-128.00;-1.00;-1.00;100357;1299;1002943;-24
2022/06/09 09:39:38;;;;;;;5.50;2.60;;;;;;;-128.00;-1.00;-1.00;100282;1299;1003945;-28
2022/06/09 09:42:19;;;;;;;2.60;2.10;;;;;;;-128.00;-1.00;-1.00;100302;1299;1002888;-30
2022/06/09 09:44:58;;;;;;;3.00;2.20;;;;;;;-128.00;-1.00;-1.00;100392;1299;1003231;-28
2022/06/09 09:47:42;;;;;;;4.90;2.10;;;;;;;-128.00;-1.00;-1.00;100272;1299;1003518;-24
2022/06/09 09:50:21;;;;;;;2.10;1.80;;;;;;;-128.00;-1.00;-1.00;100196;1299;1002968;-28
2022/06/09 09:52:56;;;;;;;2.60;2.00;;;;;;;-128.00;-1.00;-1.00;100202;1299;1003491;-28
2022/06/09 09:55:26;;;;;;;2.80;2.50;;;;;;;-128.00;-1.00;-1.00;100209;1299;1003166;-24
2022/06/09 09:58:07;;;;;;;2.80;2.50;;;;;;;-128.00;-1.00;-1.00;100171;1299;1004740;-28
2022/06/09 10:00:37;;;;;;;2.30;2.10;;;;;;;-128.00;-1.00;-1.00;100189;1299;1003579;-25
2022/06/09 10:10:55;;;;;;;3.20;2.80;;;;;;;-128.00;-1.00;-1.00;100253;1299;1003076;-24
2022/06/09 10:13:30;;;;;;;2.90;2.50;;;;;;;-128.00;-1.00;-1.00;100246;1299;1002620;-24
2022/06/09 10:16:01;;;;;;;2.10;1.90;;;;;;;-128.00;-1.00;-1.00;100264;1299;1004003;-24
2022/06/09 10:18:30;;;;;;;2.80;2.60;;;;;;;-128.00;-1.00;-1.00;100259;1299;1003022;-28
2022/06/09 10:21:10;;;;;;;2.30;2.10;;;;;;;-128.00;-1.00;-1.00;100236;1299;1002660;-29
2022/06/09 10:23:51;;;;;;;3.10;2.60;;;;;;;-128.00;-1.00;-1.00;100297;1299;1002978;-29
2022/06/09 10:26:32;;;;;;;19.30;1.70;;;;;;;-128.00;-1.00;-1.00;100117;1299;1003805;-28
2022/06/09 10:29:13;;;;;;;2.20;2.00;;;;;;;-128.00;-1.00;-1.00;100254;1299;1004109;-24
2022/06/09 10:31:53;;;;;;;4.10;2.40;;;;;;;-128.00;-1.00;-1.00;100339;1299;1002919;-28
2022/06/09 10:34:54;;;;;;;3.20;2.90;;;;;;;-128.00;-1.00;-1.00;100319;1299;1003593;-28
2022/06/09 10:37:36;;;;;;;2.60;2.40;;;;;;;-128.00;-1.00;-1.00;100238;1299;1003638;-24
2022/06/09 10:40:14;;;;;;;2.80;2.70;;;;;;;-128.00;-1.00;-1.00;100230;1298;1003218;-28
2022/06/09 10:42:57;;;;;;;3.60;3.30;;;;;;;-128.00;-1.00;-1.00;100186;1299;1003317;-28
2022/06/09 10:45:49;;;;;;;2.10;1.90;;;;;;;-128.00;-1.00;-1.00;100256;1299;1003549;-24
2022/06/09 10:56:46;;;;;;;4.50;2.60;;;;;;;-128.00;-1.00;-1.00;100257;1299;1002919;-28
2022/06/09 10:59:30;;;;;;;2.20;1.60;;;;;;;-128.00;-1.00;-1.00;100226;1299;1003118;-28
2022/06/09 11:02:14;;;;;;;2.70;2.40;;;;;;;-128.00;-1.00;-1.00;100265;1299;1003425;-25
2022/06/09 11:04:52;;;;;;;3.20;2.80;;;;;;;-128.00;-1.00;-1.00;100250;1299;1003413;-25
2022/06/09 11:07:34;;;;;;;3.50;3.10;;;;;;;-128.00;-1.00;-1.00;100252;1299;1003182;-29
2022/06/09 11:10:17;;;;;;;1.90;1.80;;;;;;;-128.00;-1.00;-1.00;100346;1299;1002761;-29
2022/06/09 11:13:14;;;;;;;4.10;3.10;;;;;;;-128.00;-1.00;-1.00;100250;1299;1003105;-28
2022/06/09 11:16:10;;;;;;;3.30;3.00;;;;;;;-128.00;-1.00;-1.00;100235;1299;1003333;-28
2022/06/09 11:19:02;;;;;;;2.70;2.50;;;;;;;-128.00;-1.00;-1.00;100280;1299;1002988;-28
2022/06/09 11:21:48;;;;;;;1.90;1.80;;;;;;;-128.00;-1.00;-1.00;100271;1299;1003860;-26
2022/06/09 11:24:40;;;;;;;4.80;2.00;;;;;;;-128.00;-1.00;-1.00;100227;1299;1003367;-28
2022/06/09 11:27:24;;;;;;;2.90;2.40;;;;;;;-128.00;-1.00;-1.00;100381;1299;1003532;-29
2022/06/09 11:30:09;;;;;;;3.30;3.10;;;;;;;-128.00;-1.00;-1.00;100255;1299;1003321;-24
2022/06/09 11:32:54;;;;;;;3.50;2.60;;;;;;;-128.00;-1.00;-1.00;100291;1299;1002976;-28
2022/06/09 11:35:32;;;;;;;3.20;3.00;;;;;;;-128.00;-1.00;-1.00;100276;1299;1003572;-28
2022/06/09 11:38:15;;;;;;;1.90;1.80;;;;;;;-128.00;-1.00;-1.00;100360;1299;1003195;-25
2022/06/09 11:41:00;;;;;;;2.90;2.00;;;;;;;-128.00;-1.00;-1.00;100293;1299;1003340;-24
2022/06/09 11:43:42;;;;;;;2.50;2.00;;;;;;;-128.00;-1.00;-1.00;100318;1299;1003502;-28
2022/06/09 11:46:23;;;;;;;3.40;2.90;;;;;;;-128.00;-1.00;-1.00;100235;1299;1002928;-28
2022/06/09 11:49:03;;;;;;;2.70;2.50;;;;;;;-128.00;-1.00;-1.00;100134;1299;1002729;-24
2022/06/09 11:51:41;;;;;;;2.30;2.20;;;;;;;-128.00;-1.00;-1.00;100241;1299;1003021;-28
2022/06/09 11:54:25;;;;;;;2.10;1.90;;;;;;;-128.00;-1.00;-1.00;100249;1299;1003104;-24
2022/06/09 11:57:25;;;;;;;2.20;1.70;;;;;;;-128.00;-1.00;-1.00;100203;1299;1003201;-24
2022/06/09 12:00:07;;;;;;;1.40;1.30;;;;;;;-128.00;-1.00;-1.00;100234;1299;1002844;-24
2022/06/09 12:02:48;;;;;;;2.20;2.00;;;;;;;-128.00;-1.00;-1.00;100279;1299;1004036;-24
2022/06/09 12:05:30;;;;;;;5.90;2.20;;;;;;;-128.00;-1.00;-1.00;100248;1299;1003488;-24
2022/06/09 12:08:12;;;;;;;2.20;1.90;;;;;;;-128.00;-1.00;-1.00;100301;1299;1003301;-25